createdAt,value
2018-03-04T00:00:25.248Z,-0.24
2018-03-04T00:01:25.123Z,-0.19
2018-03-04T00:02:24.989Z,-0.22
2018-03-04T00:03:24.857Z,-0.18
2018-03-04T00:04:24.728Z,-0.16
2018-03-04T00:05:24.592Z,-0.09
2018-03-04T00:06:24.463Z,-0.12
2018-03-04T00:07:24.330Z,-0.09
2018-03-04T00:08:24.202Z,-0.13
2018-03-04T00:09:24.068Z,-0.09
2018-03-04T00:10:23.938Z,-0.04
2018-03-04T00:11:23.805Z,-0.05
2018-03-04T00:12:23.673Z,-0.04
2018-03-04T00:13:23.548Z,-0.05
2018-03-04T00:14:23.411Z,-0.04
2018-03-04T00:15:23.279Z,-0.18
2018-03-04T00:16:23.153Z,-0.41
2018-03-04T00:17:23.021Z,-0.31
2018-03-04T00:18:22.886Z,-0.34
2018-03-04T00:19:22.756Z,-0.44
2018-03-04T00:20:22.624Z,-0.36
2018-03-04T00:21:22.496Z,-0.34
2018-03-04T00:22:22.362Z,-0.42
2018-03-04T00:23:22.229Z,-0.33
2018-03-04T00:24:22.097Z,-0.39
2018-03-04T00:25:21.970Z,-0.29
2018-03-04T00:26:21.836Z,-0.26
2018-03-04T00:27:21.708Z,-0.15
2018-03-04T00:28:21.573Z,-0.23
2018-03-04T00:29:21.446Z,-0.30
2018-03-04T00:30:21.312Z,-0.27
2018-03-04T00:31:21.182Z,-0.29
2018-03-04T00:32:21.051Z,-0.23
2018-03-04T00:33:20.919Z,-0.27
2018-03-04T00:34:20.789Z,-0.34
2018-03-04T00:35:20.657Z,-0.19
2018-03-04T00:36:20.526Z,-0.15
2018-03-04T00:37:20.397Z,-0.06
2018-03-04T00:38:20.266Z,-0.15
2018-03-04T00:39:20.134Z,-0.06
2018-03-04T00:40:20.004Z,-0.04
2018-03-04T00:41:19.870Z,0.06
2018-03-04T00:42:19.739Z,0.09
2018-03-04T00:43:19.608Z,0.13
2018-03-04T00:44:19.482Z,0.10
2018-03-04T00:45:19.344Z,0.02
2018-03-04T00:46:19.214Z,0.00
2018-03-04T00:47:19.087Z,-0.05
2018-03-04T00:48:18.952Z,-0.04
2018-03-04T00:49:18.824Z,-0.08
2018-03-04T00:50:18.691Z,-0.16
2018-03-04T00:51:18.558Z,-0.18
2018-03-04T00:52:18.429Z,-0.29
2018-03-04T00:53:18.298Z,-0.33
2018-03-04T00:54:18.166Z,-0.39
2018-03-04T00:55:18.035Z,-0.30
2018-03-04T00:56:17.903Z,-0.37
2018-03-04T00:57:17.774Z,-0.47
2018-03-04T00:58:17.646Z,-0.52
2018-03-04T00:59:17.513Z,-0.51
2018-03-04T01:00:17.378Z,-0.54
2018-03-04T01:01:17.248Z,-0.69
2018-03-04T01:02:17.117Z,-0.66
2018-03-04T01:03:16.985Z,-0.70
2018-03-04T01:04:16.853Z,-0.72
2018-03-04T01:05:16.722Z,-0.75
2018-03-04T01:06:16.588Z,-0.70
2018-03-04T01:07:16.456Z,-0.77
2018-03-04T01:08:16.326Z,-0.81
2018-03-04T01:09:16.190Z,-0.81
2018-03-04T01:10:16.060Z,-0.84
2018-03-04T01:11:15.925Z,-0.87
2018-03-04T01:12:15.798Z,-0.86
2018-03-04T01:13:15.664Z,-0.87
2018-03-04T01:14:15.536Z,-0.81
2018-03-04T01:15:15.399Z,-0.87
2018-03-04T01:16:15.271Z,-0.81
2018-03-04T01:17:15.140Z,-0.87
2018-03-04T01:18:15.004Z,-0.84
2018-03-04T01:19:14.873Z,-0.91
2018-03-04T01:20:14.741Z,-0.99
2018-03-04T01:21:14.608Z,-0.87
2018-03-04T01:22:14.476Z,-1.02
2018-03-04T01:23:14.342Z,-0.97
2018-03-04T01:24:14.208Z,-1.02
2018-03-04T01:25:14.081Z,-0.97
2018-03-04T01:26:13.948Z,-0.91
2018-03-04T01:27:13.812Z,-0.99
2018-03-04T01:28:13.680Z,-1.00
2018-03-04T01:29:13.548Z,-0.97
2018-03-04T01:30:13.415Z,-0.91
2018-03-04T01:31:13.286Z,-0.86
2018-03-04T01:32:13.150Z,-0.84
2018-03-04T01:33:13.020Z,-0.81
2018-03-04T01:34:12.887Z,-0.72
2018-03-04T01:35:12.756Z,-0.77
2018-03-04T01:36:12.624Z,-0.75
2018-03-04T01:37:12.490Z,-0.69
2018-03-04T01:38:12.357Z,-0.66
2018-03-04T01:39:12.225Z,-0.68
2018-03-04T01:40:12.091Z,-0.72
2018-03-04T01:41:11.960Z,-0.66
2018-03-04T01:42:11.827Z,-0.59
2018-03-04T01:43:11.697Z,-0.52
2018-03-04T01:44:11.561Z,-0.60
2018-03-04T01:45:11.432Z,-0.51
2018-03-04T01:46:11.297Z,-0.50
2018-03-04T01:47:11.166Z,-0.60
2018-03-04T01:48:11.033Z,-0.50
2018-03-04T01:49:10.901Z,-0.62
2018-03-04T01:50:10.769Z,-0.59
2018-03-04T01:51:10.635Z,-0.52
2018-03-04T01:52:10.503Z,-0.52
2018-03-04T01:53:10.372Z,-0.66
2018-03-04T01:54:10.246Z,-0.66
2018-03-04T01:55:10.108Z,-0.69
2018-03-04T01:56:09.976Z,-0.62
2018-03-04T01:57:09.844Z,-0.70
2018-03-04T01:58:09.713Z,-0.77
2018-03-04T01:59:09.579Z,-0.77
2018-03-04T02:00:09.447Z,-0.63
2018-03-04T02:01:09.316Z,-0.78
2018-03-04T02:02:09.182Z,-0.75
2018-03-04T02:03:09.052Z,-0.70
2018-03-04T02:04:08.924Z,-0.73
2018-03-04T02:05:08.787Z,-0.83
2018-03-04T02:06:08.658Z,-0.81
2018-03-04T02:07:08.522Z,-0.92
2018-03-04T02:08:08.393Z,-0.94
2018-03-04T02:09:08.260Z,-1.03
2018-03-04T02:10:08.128Z,-1.06
2018-03-04T02:11:07.995Z,-1.05
2018-03-04T02:12:07.863Z,-1.05
2018-03-04T02:13:07.729Z,-1.12
2018-03-04T02:14:07.596Z,-1.15
2018-03-04T02:15:07.466Z,-1.15
2018-03-04T02:16:07.332Z,-1.13
2018-03-04T02:17:07.200Z,-1.18
2018-03-04T02:18:07.070Z,-1.24
2018-03-04T02:19:06.938Z,-1.10
2018-03-04T02:20:06.802Z,-1.25
2018-03-04T02:21:06.674Z,-1.20
2018-03-04T02:22:06.540Z,-1.27
2018-03-04T02:23:06.404Z,-1.24
2018-03-04T02:24:06.274Z,-1.23
2018-03-04T02:25:06.141Z,-1.20
2018-03-04T02:26:06.009Z,-1.27
2018-03-04T02:27:05.878Z,-1.17
2018-03-04T02:28:05.741Z,-1.24
2018-03-04T02:29:05.608Z,-1.24
2018-03-04T02:30:05.567Z,-1.28
2018-03-04T02:31:05.343Z,-1.31
2018-03-04T02:32:05.211Z,-1.27
2018-03-04T02:33:05.081Z,-1.27
2018-03-04T02:34:04.946Z,-1.27
2018-03-04T02:35:04.815Z,-1.27
2018-03-04T02:36:04.683Z,-1.21
2018-03-04T02:37:04.545Z,-1.28
2018-03-04T02:38:04.415Z,-1.24
2018-03-04T02:39:04.278Z,-1.31
2018-03-04T02:40:04.149Z,-1.28
2018-03-04T02:41:04.015Z,-1.27
2018-03-04T02:42:03.886Z,-1.41
2018-03-04T02:43:03.747Z,-1.38
2018-03-04T02:44:03.614Z,-1.43
2018-03-04T02:45:03.488Z,-1.41
2018-03-04T02:46:03.352Z,-1.42
2018-03-04T02:47:03.215Z,-1.43
2018-03-04T02:48:03.081Z,-1.39
2018-03-04T02:49:02.953Z,-1.43
2018-03-04T02:50:02.816Z,-1.45
2018-03-04T02:51:02.685Z,-1.43
2018-03-04T02:52:02.557Z,-1.39
2018-03-04T02:53:02.416Z,-1.46
2018-03-04T02:54:02.287Z,-1.45
2018-03-04T02:55:02.153Z,-1.46
2018-03-04T02:56:02.020Z,-1.45
2018-03-04T02:57:01.887Z,-1.45
2018-03-04T02:58:01.761Z,-1.49
2018-03-04T02:59:01.616Z,-1.45
2018-03-04T03:00:01.498Z,-1.46
2018-03-04T03:01:01.353Z,-1.46
2018-03-04T03:02:01.218Z,-1.46
2018-03-04T03:03:01.084Z,-1.38
2018-03-04T03:04:00.950Z,-1.57
2018-03-04T03:05:00.819Z,-1.56
2018-03-04T03:06:00.696Z,-1.56
2018-03-04T03:07:00.557Z,-1.56
2018-03-04T03:08:00.419Z,-1.59
2018-03-04T03:09:00.285Z,-1.51
2018-03-04T03:10:00.152Z,-1.56
2018-03-04T03:11:00.029Z,-1.51
2018-03-04T03:11:59.884Z,-1.56
2018-03-04T03:12:59.752Z,-1.48
2018-03-04T03:13:59.659Z,-1.56
2018-03-04T03:14:59.487Z,-1.48
2018-03-04T03:15:59.350Z,-1.49
2018-03-04T03:16:59.218Z,-1.48
2018-03-04T03:17:59.088Z,-1.48
2018-03-04T03:18:58.952Z,-1.49
2018-03-04T03:19:58.815Z,-1.56
2018-03-04T03:20:58.684Z,-1.53
2018-03-04T03:21:58.550Z,-1.54
2018-03-04T03:22:58.417Z,-1.49
2018-03-04T03:23:58.283Z,-1.49
2018-03-04T03:24:58.153Z,-1.51
2018-03-04T03:25:58.018Z,-1.46
2018-03-04T03:26:57.886Z,-1.53
2018-03-04T03:27:57.757Z,-1.54
2018-03-04T03:28:57.617Z,-1.53
2018-03-04T03:29:57.485Z,-1.49
2018-03-04T03:30:57.362Z,-1.53
2018-03-04T03:31:57.216Z,-1.57
2018-03-04T03:32:57.083Z,-1.54
2018-03-04T03:33:56.950Z,-1.57
2018-03-04T03:34:56.816Z,-1.57
2018-03-04T03:35:56.683Z,-1.59
2018-03-04T03:36:56.549Z,-1.62
2018-03-04T03:37:56.421Z,-1.57
2018-03-04T03:38:56.282Z,-1.56
2018-03-04T03:39:56.151Z,-1.59
2018-03-04T03:40:56.017Z,-1.69
2018-03-04T03:41:55.884Z,-1.69
2018-03-04T03:42:55.751Z,-1.67
2018-03-04T03:43:55.617Z,-1.67
2018-03-04T03:44:55.485Z,-1.57
2018-03-04T03:45:55.354Z,-1.63
2018-03-04T03:46:55.220Z,-1.57
2018-03-04T03:47:55.086Z,-1.57
2018-03-04T03:48:54.949Z,-1.57
2018-03-04T03:49:54.818Z,-1.51
2018-03-04T03:50:54.684Z,-1.57
2018-03-04T03:51:54.552Z,-1.54
2018-03-04T03:52:54.421Z,-1.60
2018-03-04T03:53:54.287Z,-1.56
2018-03-04T03:54:54.151Z,-1.62
2018-03-04T03:55:54.020Z,-1.64
2018-03-04T03:56:53.887Z,-1.60
2018-03-04T03:57:53.754Z,-1.66
2018-03-04T03:58:53.617Z,-1.67
2018-03-04T03:59:53.488Z,-1.57
2018-03-04T04:00:53.353Z,-1.54
2018-03-04T04:01:53.218Z,-1.59
2018-03-04T04:02:53.086Z,-1.66
2018-03-04T04:03:52.951Z,-1.60
2018-03-04T04:04:52.821Z,-1.63
2018-03-04T04:05:52.685Z,-1.64
2018-03-04T04:06:52.551Z,-1.62
2018-03-04T04:07:52.419Z,-1.69
2018-03-04T04:08:52.286Z,-1.63
2018-03-04T04:09:52.158Z,-1.63
2018-03-04T04:10:52.018Z,-1.69
2018-03-04T04:11:51.886Z,-1.74
2018-03-04T04:12:51.754Z,-1.72
2018-03-04T04:13:51.620Z,-1.75
2018-03-04T04:14:51.484Z,-1.75
2018-03-04T04:15:51.354Z,-1.75
2018-03-04T04:16:51.219Z,-1.74
2018-03-04T04:17:51.087Z,-1.85
2018-03-04T04:18:50.951Z,-1.87
2018-03-04T04:19:50.821Z,-1.81
2018-03-04T04:20:50.687Z,-1.88
2018-03-04T04:21:50.554Z,-1.88
2018-03-04T04:22:50.426Z,-1.96
2018-03-04T04:23:50.286Z,-1.90
2018-03-04T04:24:50.154Z,-1.85
2018-03-04T04:25:50.023Z,-1.92
2018-03-04T04:26:49.886Z,-1.90
2018-03-04T04:27:49.755Z,-1.95
2018-03-04T04:28:49.623Z,-1.93
2018-03-04T04:29:49.488Z,-1.96
2018-03-04T04:30:49.355Z,-1.93
2018-03-04T04:31:49.246Z,-1.85
2018-03-04T04:32:49.089Z,-1.85
2018-03-04T04:33:48.959Z,-1.92
2018-03-04T04:34:48.820Z,-1.93
2018-03-04T04:35:48.685Z,-1.95
2018-03-04T04:36:48.556Z,-2.00
2018-03-04T04:37:48.422Z,-2.05
2018-03-04T04:38:48.288Z,-1.95
2018-03-04T04:39:48.155Z,-1.96
2018-03-04T04:40:48.027Z,-2.03
2018-03-04T04:41:47.887Z,-2.03
2018-03-04T04:42:47.754Z,-2.03
2018-03-04T04:43:47.620Z,-2.05
2018-03-04T04:44:47.487Z,-2.17
2018-03-04T04:45:47.359Z,-2.13
2018-03-04T04:46:47.221Z,-2.11
2018-03-04T04:47:47.091Z,-2.16
2018-03-04T04:48:46.952Z,-2.11
2018-03-04T04:49:46.819Z,-2.20
2018-03-04T04:50:46.690Z,-2.32
2018-03-04T04:51:46.551Z,-2.28
2018-03-04T04:52:46.422Z,-2.21
2018-03-04T04:53:46.287Z,-2.24
2018-03-04T04:54:46.150Z,-2.26
2018-03-04T04:55:46.018Z,-2.28
2018-03-04T04:56:45.884Z,-2.21
2018-03-04T04:57:45.752Z,-2.21
2018-03-04T04:58:45.624Z,-2.28
2018-03-04T04:59:45.491Z,-2.32
2018-03-04T05:00:45.353Z,-2.32
2018-03-04T05:01:45.218Z,-2.28
2018-03-04T05:02:45.084Z,-2.29
2018-03-04T05:03:44.947Z,-2.36
2018-03-04T05:04:44.816Z,-2.43
2018-03-04T05:05:44.683Z,-2.33
2018-03-04T05:06:44.557Z,-2.42
2018-03-04T05:07:44.411Z,-2.28
2018-03-04T05:08:44.282Z,-2.32
2018-03-04T05:09:44.144Z,-2.33
2018-03-04T05:10:44.011Z,-2.29
2018-03-04T05:11:43.879Z,-2.35
2018-03-04T05:12:43.746Z,-2.36
2018-03-04T05:13:43.609Z,-2.33
2018-03-04T05:14:43.480Z,-2.36
2018-03-04T05:15:43.343Z,-2.42
2018-03-04T05:16:43.211Z,-2.35
2018-03-04T05:17:43.075Z,-2.35
2018-03-04T05:18:42.940Z,-2.39
2018-03-04T05:19:42.808Z,-2.42
2018-03-04T05:20:42.673Z,-2.39
2018-03-04T05:21:42.540Z,-2.39
2018-03-04T05:22:42.408Z,-2.33
2018-03-04T05:23:42.271Z,-2.42
2018-03-04T05:24:42.138Z,-2.32
2018-03-04T05:25:42.015Z,-2.28
2018-03-04T05:26:41.869Z,-2.33
2018-03-04T05:27:41.735Z,-2.39
2018-03-04T05:28:41.603Z,-2.38
2018-03-04T05:29:41.467Z,-2.35
2018-03-04T05:30:41.336Z,-2.42
2018-03-04T05:31:41.200Z,-2.43
2018-03-04T05:32:41.065Z,-2.43
2018-03-04T05:33:40.943Z,-2.39
2018-03-04T05:34:40.798Z,-2.39
2018-03-04T05:35:40.665Z,-2.36
2018-03-04T05:36:40.533Z,-2.39
2018-03-04T05:37:40.396Z,-2.36
2018-03-04T05:38:40.264Z,-2.33
2018-03-04T05:39:40.129Z,-2.36
2018-03-04T05:40:39.994Z,-2.32
2018-03-04T05:41:39.858Z,-2.32
2018-03-04T05:42:39.726Z,-2.40
2018-03-04T05:43:39.590Z,-2.38
2018-03-04T05:44:39.470Z,-2.45
2018-03-04T05:45:39.324Z,-2.43
2018-03-04T05:46:39.187Z,-2.36
2018-03-04T05:47:39.058Z,-2.45
2018-03-04T05:48:38.922Z,-2.42
2018-03-04T05:49:38.786Z,-2.40
2018-03-04T05:50:38.652Z,-2.39
2018-03-04T05:51:38.517Z,-2.39
2018-03-04T05:52:38.384Z,-2.45
2018-03-04T05:53:38.251Z,-2.42
2018-03-04T05:54:38.116Z,-2.47
2018-03-04T05:55:37.981Z,-2.53
2018-03-04T05:56:37.851Z,-2.50
2018-03-04T05:57:37.714Z,-2.50
2018-03-04T05:58:37.586Z,-2.50
2018-03-04T05:59:37.445Z,-2.47
2018-03-04T06:00:37.333Z,-2.60
2018-03-04T06:01:37.177Z,-2.60
2018-03-04T06:02:37.043Z,-2.54
2018-03-04T06:03:36.915Z,-2.53
2018-03-04T06:04:36.776Z,-2.47
2018-03-04T06:05:36.642Z,-2.51
2018-03-04T06:06:36.510Z,-2.50
2018-03-04T06:07:36.377Z,-2.57
2018-03-04T06:08:36.251Z,-2.54
2018-03-04T06:09:36.106Z,-2.48
2018-03-04T06:10:35.972Z,-2.54
2018-03-04T06:11:35.838Z,-2.56
2018-03-04T06:12:35.739Z,-2.53
2018-03-04T06:13:35.574Z,-2.50
2018-03-04T06:14:35.435Z,-2.51
2018-03-04T06:15:35.301Z,-2.47
2018-03-04T06:16:35.175Z,-2.50
2018-03-04T06:17:35.040Z,-2.57
2018-03-04T06:18:34.899Z,-2.45
2018-03-04T06:19:34.764Z,-2.54
2018-03-04T06:20:34.631Z,-2.50
2018-03-04T06:21:34.496Z,-2.56
2018-03-04T06:22:34.365Z,-2.60
2018-03-04T06:23:34.236Z,-2.60
2018-03-04T06:24:34.117Z,-2.53
2018-03-04T06:25:33.960Z,-2.58
2018-03-04T06:26:33.825Z,-2.54
2018-03-04T06:27:33.691Z,-2.58
2018-03-04T06:28:33.558Z,-2.48
2018-03-04T06:29:33.424Z,-2.54
2018-03-04T06:30:33.288Z,-2.54
2018-03-04T06:31:33.152Z,-2.56
2018-03-04T06:32:33.024Z,-2.50
2018-03-04T06:33:32.887Z,-2.53
2018-03-04T06:34:32.754Z,-2.48
2018-03-04T06:35:32.619Z,-2.42
2018-03-04T06:36:32.484Z,-2.43
2018-03-04T06:37:32.359Z,-2.42
2018-03-04T06:38:32.216Z,-2.39
2018-03-04T06:39:32.082Z,-2.40
2018-03-04T06:40:31.954Z,-2.39
2018-03-04T06:41:31.815Z,-2.42
2018-03-04T06:42:31.680Z,-2.47
2018-03-04T06:43:31.546Z,-2.43
2018-03-04T06:44:31.410Z,-2.43
2018-03-04T06:45:31.278Z,-2.40
2018-03-04T06:46:31.147Z,-2.45
2018-03-04T06:47:31.016Z,-2.43
2018-03-04T06:48:30.878Z,-2.45
2018-03-04T06:49:30.749Z,-2.45
2018-03-04T06:50:30.608Z,-2.45
2018-03-04T06:51:30.476Z,-2.47
2018-03-04T06:52:30.342Z,-2.45
2018-03-04T06:53:30.207Z,-2.42
2018-03-04T06:54:30.077Z,-2.40
2018-03-04T06:55:29.942Z,-2.43
2018-03-04T06:56:29.805Z,-2.43
2018-03-04T06:57:29.672Z,-2.43
2018-03-04T06:58:29.540Z,-2.47
2018-03-04T06:59:29.408Z,-2.42
2018-03-04T07:00:29.271Z,-2.47
2018-03-04T07:01:29.137Z,-2.39
2018-03-04T07:02:29.005Z,-2.39
2018-03-04T07:03:28.869Z,-2.39
2018-03-04T07:04:28.733Z,-2.40
2018-03-04T07:05:28.602Z,-2.40
2018-03-04T07:06:28.468Z,-2.42
2018-03-04T07:07:28.336Z,-2.36
2018-03-04T07:08:28.199Z,-2.33
2018-03-04T07:09:28.067Z,-2.26
2018-03-04T07:10:27.981Z,-2.33
2018-03-04T07:11:27.798Z,-2.35
2018-03-04T07:12:27.666Z,-2.38
2018-03-04T07:13:27.531Z,-2.39
2018-03-04T07:14:27.403Z,-2.24
2018-03-04T07:15:27.263Z,-2.29
2018-03-04T07:16:27.132Z,-2.32
2018-03-04T07:17:26.998Z,-2.23
2018-03-04T07:18:26.862Z,-2.13
2018-03-04T07:19:26.727Z,-1.92
2018-03-04T07:20:26.594Z,-1.66
2018-03-04T07:21:26.463Z,-1.45
2018-03-04T07:22:26.329Z,-1.18
2018-03-04T07:23:26.229Z,-1.05
2018-03-04T07:24:26.068Z,-0.89
2018-03-04T07:25:25.929Z,-0.73
2018-03-04T07:26:25.796Z,-0.57
2018-03-04T07:27:25.666Z,-0.30
2018-03-04T07:28:25.532Z,-0.15
2018-03-04T07:29:25.438Z,0.16
2018-03-04T07:30:25.270Z,0.51
2018-03-04T07:31:25.136Z,0.72
2018-03-04T07:32:25.004Z,1.00
2018-03-04T07:33:24.897Z,1.14
2018-03-04T07:34:24.738Z,1.28
2018-03-04T07:35:24.611Z,1.40
2018-03-04T07:36:24.500Z,1.42
2018-03-04T07:37:24.347Z,1.36
2018-03-04T07:38:24.214Z,1.44
2018-03-04T07:39:24.087Z,1.64
2018-03-04T07:40:23.955Z,1.68
2018-03-04T07:41:23.827Z,1.78
2018-03-04T07:42:23.694Z,1.82
2018-03-04T07:43:23.563Z,2.01
2018-03-04T07:44:23.438Z,2.04
2018-03-04T07:45:23.303Z,2.33
2018-03-04T07:46:23.180Z,2.51
2018-03-04T07:47:23.051Z,2.55
2018-03-04T07:48:22.918Z,2.49
2018-03-04T07:49:22.790Z,2.70
2018-03-04T07:50:22.661Z,2.77
2018-03-04T07:51:22.529Z,2.81
2018-03-04T07:52:22.405Z,2.84
2018-03-04T07:53:22.272Z,2.84
2018-03-04T07:54:22.143Z,2.92
2018-03-04T07:55:22.017Z,3.00
2018-03-04T07:56:21.885Z,2.84
2018-03-04T07:57:21.756Z,2.82
2018-03-04T07:58:21.653Z,2.81
2018-03-04T07:59:21.501Z,2.52
2018-03-04T08:00:21.372Z,2.45
2018-03-04T08:01:21.249Z,2.28
2018-03-04T08:02:21.115Z,2.31
2018-03-04T08:03:20.990Z,2.46
2018-03-04T08:04:20.855Z,2.71
2018-03-04T08:05:20.728Z,3.03
2018-03-04T08:06:20.599Z,2.94
2018-03-04T08:07:20.472Z,3.18
2018-03-04T08:08:20.344Z,3.36
2018-03-04T08:09:20.215Z,3.64
2018-03-04T08:10:20.086Z,3.71
2018-03-04T08:11:19.957Z,3.90
2018-03-04T08:12:19.831Z,4.14
2018-03-04T08:13:19.701Z,4.22
2018-03-04T08:14:19.574Z,4.25
2018-03-04T08:15:19.458Z,4.40
2018-03-04T08:16:19.319Z,4.37
2018-03-04T08:17:20.021Z,4.40
2018-03-04T08:18:19.142Z,4.40
2018-03-04T08:19:18.935Z,4.29
2018-03-04T08:20:18.811Z,4.26
2018-03-04T08:21:18.683Z,4.37
2018-03-04T08:22:18.554Z,4.43
2018-03-04T08:23:18.431Z,4.52
2018-03-04T08:24:18.301Z,4.42
2018-03-04T08:25:18.177Z,4.37
2018-03-04T08:26:18.048Z,4.24
2018-03-04T08:27:17.921Z,4.15
2018-03-04T08:28:17.794Z,4.08
2018-03-04T08:29:17.669Z,4.08
2018-03-04T08:30:17.538Z,4.33
2018-03-04T08:31:17.412Z,4.40
2018-03-04T08:32:17.286Z,4.69
2018-03-04T08:33:17.163Z,4.32
2018-03-04T08:34:17.031Z,4.25
2018-03-04T08:35:16.906Z,4.03
2018-03-04T08:36:16.776Z,3.75
2018-03-04T08:37:16.648Z,3.79
2018-03-04T08:38:16.522Z,3.82
2018-03-04T08:39:16.396Z,4.06
2018-03-04T08:40:16.271Z,4.25
2018-03-04T08:41:16.316Z,4.62
2018-03-04T08:42:16.018Z,4.65
2018-03-04T08:43:15.892Z,4.59
2018-03-04T08:44:15.765Z,4.80
2018-03-04T08:45:15.642Z,4.67
2018-03-04T08:46:15.510Z,4.62
2018-03-04T08:47:15.391Z,4.79
2018-03-04T08:48:15.547Z,4.94
2018-03-04T08:49:15.138Z,4.95
2018-03-04T08:50:15.006Z,4.95
2018-03-04T08:51:14.880Z,5.17
2018-03-04T08:52:14.753Z,5.35
2018-03-04T08:53:14.628Z,5.53
2018-03-04T08:54:14.502Z,5.48
2018-03-04T08:55:14.375Z,5.31
2018-03-04T08:56:14.250Z,5.10
2018-03-04T08:57:14.125Z,5.38
2018-03-04T08:58:13.996Z,5.43
2018-03-04T08:59:13.870Z,5.50
2018-03-04T09:00:13.745Z,5.34
2018-03-04T09:01:13.620Z,5.50
2018-03-04T09:02:13.539Z,5.48
2018-03-04T09:03:13.365Z,5.63
2018-03-04T09:04:13.242Z,5.38
2018-03-04T09:05:13.117Z,5.37
2018-03-04T09:06:12.989Z,5.57
2018-03-04T09:07:12.861Z,5.64
2018-03-04T09:08:12.737Z,5.63
2018-03-04T09:09:12.613Z,5.74
2018-03-04T09:10:12.486Z,5.55
2018-03-04T09:11:12.360Z,5.35
2018-03-04T09:12:12.238Z,5.25
2018-03-04T09:13:12.117Z,5.22
2018-03-04T09:14:11.984Z,5.10
2018-03-04T09:15:11.856Z,5.10
2018-03-04T09:16:11.730Z,5.25
2018-03-04T09:17:11.602Z,5.59
2018-03-04T09:18:11.478Z,5.45
2018-03-04T09:19:11.351Z,5.38
2018-03-04T09:20:11.227Z,5.48
2018-03-04T09:21:11.099Z,5.68
2018-03-04T09:22:10.973Z,5.98
2018-03-04T09:23:10.851Z,6.22
2018-03-04T09:24:10.723Z,6.51
2018-03-04T09:25:10.598Z,6.90
2018-03-04T09:26:10.472Z,7.34
2018-03-04T09:27:10.345Z,6.94
2018-03-04T09:28:10.221Z,6.86
2018-03-04T09:29:10.094Z,6.66
2018-03-04T09:30:09.967Z,6.54
2018-03-04T09:31:09.847Z,6.48
2018-03-04T09:32:09.722Z,6.32
2018-03-04T09:33:09.597Z,6.51
2018-03-04T09:34:09.492Z,6.46
2018-03-04T09:35:09.344Z,6.73
2018-03-04T09:36:09.220Z,7.13
2018-03-04T09:37:09.092Z,6.99
2018-03-04T09:38:08.967Z,6.80
2018-03-04T09:39:08.840Z,6.63
2018-03-04T09:40:08.715Z,6.76
2018-03-04T09:41:08.593Z,7.09
2018-03-04T09:42:08.467Z,7.17
2018-03-04T09:43:08.341Z,7.34
2018-03-04T09:44:08.217Z,7.38
2018-03-04T09:45:08.097Z,7.92
2018-03-04T09:46:07.971Z,8.15
2018-03-04T09:47:07.841Z,8.20
2018-03-04T09:48:07.722Z,8.08
2018-03-04T09:49:07.596Z,7.78
2018-03-04T09:50:07.471Z,7.56
2018-03-04T09:51:07.346Z,7.85
2018-03-04T09:52:07.221Z,7.82
2018-03-04T09:53:07.097Z,8.03
2018-03-04T09:54:06.973Z,8.28
2018-03-04T09:55:06.849Z,8.72
2018-03-04T09:56:06.727Z,8.66
2018-03-04T09:57:06.601Z,9.18
2018-03-04T09:58:06.477Z,9.46
2018-03-04T09:59:06.363Z,9.42
2018-03-04T10:00:06.230Z,9.02
2018-03-04T10:01:06.107Z,8.55
2018-03-04T10:02:05.991Z,8.30
2018-03-04T10:03:05.865Z,8.17
2018-03-04T10:04:05.740Z,8.42
2018-03-04T10:05:05.618Z,8.15
2018-03-04T10:06:05.490Z,7.90
2018-03-04T10:07:05.367Z,7.96
2018-03-04T10:08:05.242Z,7.58
2018-03-04T10:09:05.129Z,7.81
2018-03-04T10:10:05.001Z,7.94
2018-03-04T10:11:04.873Z,7.99
2018-03-04T10:12:04.749Z,8.14
2018-03-04T10:13:04.626Z,8.30
2018-03-04T10:14:04.508Z,8.18
2018-03-04T10:15:04.377Z,8.25
2018-03-04T10:16:04.255Z,8.55
2018-03-04T10:17:04.189Z,8.18
2018-03-04T10:18:04.007Z,7.97
2018-03-04T10:19:03.886Z,7.99
2018-03-04T10:20:03.760Z,8.14
2018-03-04T10:21:03.664Z,8.55
2018-03-04T10:22:03.517Z,8.73
2018-03-04T10:23:03.390Z,9.16
2018-03-04T10:24:03.264Z,9.27
2018-03-04T10:25:03.149Z,9.20
2018-03-04T10:26:03.111Z,8.93
2018-03-04T10:27:02.893Z,9.15
2018-03-04T10:28:02.771Z,9.42
2018-03-04T10:29:02.691Z,9.20
2018-03-04T10:30:02.531Z,9.01
2018-03-04T10:31:02.402Z,8.94
2018-03-04T10:32:02.281Z,9.25
2018-03-04T10:33:02.155Z,9.58
2018-03-04T10:34:02.031Z,9.81
2018-03-04T10:35:01.909Z,9.58
2018-03-04T10:36:01.785Z,9.43
2018-03-04T10:37:01.662Z,9.40
2018-03-04T10:38:01.538Z,9.06
2018-03-04T10:39:01.415Z,9.09
2018-03-04T10:40:01.292Z,9.46
2018-03-04T10:41:01.173Z,9.31
2018-03-04T10:42:01.048Z,9.49
2018-03-04T10:43:00.923Z,9.43
2018-03-04T10:44:00.802Z,9.28
2018-03-04T10:45:00.680Z,9.35
2018-03-04T10:46:00.555Z,9.40
2018-03-04T10:47:00.435Z,9.75
2018-03-04T10:48:00.308Z,9.83
2018-03-04T10:49:00.185Z,9.91
2018-03-04T10:50:00.064Z,10.01
2018-03-04T10:50:59.940Z,10.28
2018-03-04T10:51:59.819Z,10.04
2018-03-04T10:52:59.813Z,9.96
2018-03-04T10:53:59.575Z,10.04
2018-03-04T10:54:59.451Z,10.17
2018-03-04T10:55:59.329Z,9.89
2018-03-04T10:56:59.208Z,9.73
2018-03-04T10:57:59.086Z,9.78
2018-03-04T10:58:58.962Z,9.42
2018-03-04T10:59:58.839Z,9.28
2018-03-04T11:00:58.719Z,9.43
2018-03-04T11:01:58.597Z,9.56
2018-03-04T11:02:58.477Z,10.04
2018-03-04T11:03:58.379Z,10.37
2018-03-04T11:04:58.235Z,10.46
2018-03-04T11:05:58.111Z,10.65
2018-03-04T11:06:57.988Z,10.83
2018-03-04T11:07:57.869Z,10.91
2018-03-04T11:08:57.743Z,11.21
2018-03-04T11:09:57.628Z,11.21
2018-03-04T11:10:57.506Z,10.89
2018-03-04T11:11:57.382Z,10.46
2018-03-04T11:12:57.258Z,10.17
2018-03-04T11:13:57.141Z,9.97
2018-03-04T11:14:57.015Z,10.15
2018-03-04T11:15:56.894Z,10.01
2018-03-04T11:16:56.777Z,10.03
2018-03-04T11:17:56.651Z,10.21
2018-03-04T11:18:56.533Z,10.22
2018-03-04T11:19:56.409Z,10.52
2018-03-04T11:20:56.289Z,10.22
2018-03-04T11:21:56.167Z,10.18
2018-03-04T11:22:56.043Z,10.14
2018-03-04T11:23:55.925Z,10.30
2018-03-04T11:24:55.805Z,10.14
2018-03-04T11:25:55.680Z,10.34
2018-03-04T11:26:55.580Z,10.62
2018-03-04T11:27:55.436Z,11.03
2018-03-04T11:28:55.319Z,11.47
2018-03-04T11:29:55.193Z,11.25
2018-03-04T11:30:55.071Z,11.17
2018-03-04T11:31:54.949Z,10.76
2018-03-04T11:32:54.842Z,10.51
2018-03-04T11:33:54.720Z,10.47
2018-03-04T11:34:54.587Z,10.39
2018-03-04T11:35:54.464Z,10.39
2018-03-04T11:36:54.347Z,10.44
2018-03-04T11:37:54.221Z,10.37
2018-03-04T11:38:54.101Z,10.28
2018-03-04T11:39:53.980Z,10.19
2018-03-04T11:40:53.859Z,10.14
2018-03-04T11:41:53.736Z,10.24
2018-03-04T11:42:53.620Z,10.37
2018-03-04T11:43:53.512Z,10.74
2018-03-04T11:44:53.387Z,11.03
2018-03-04T11:45:53.249Z,10.94
2018-03-04T11:46:53.124Z,11.01
2018-03-04T11:47:53.008Z,11.24
2018-03-04T11:48:52.893Z,11.27
2018-03-04T11:49:52.795Z,11.17
2018-03-04T11:50:52.641Z,11.50
2018-03-04T11:51:52.524Z,11.54
2018-03-04T11:52:52.401Z,11.29
2018-03-04T11:53:52.277Z,10.71
2018-03-04T11:54:52.154Z,10.17
2018-03-04T11:55:52.073Z,9.94
2018-03-04T11:56:51.914Z,9.76
2018-03-04T11:57:51.791Z,9.58
2018-03-04T11:58:51.674Z,9.63
2018-03-04T11:59:51.549Z,9.89
2018-03-04T12:00:51.426Z,10.40
2018-03-04T12:01:51.303Z,10.17
2018-03-04T12:02:51.180Z,10.22
2018-03-04T12:03:51.067Z,10.28
2018-03-04T12:04:50.953Z,10.80
2018-03-04T12:05:50.848Z,10.86
2018-03-04T12:06:50.744Z,11.32
2018-03-04T12:07:50.715Z,11.09
2018-03-04T12:08:50.554Z,10.78
2018-03-04T12:09:50.504Z,10.52
2018-03-04T12:10:50.229Z,10.92
2018-03-04T12:11:50.090Z,11.24
2018-03-04T12:12:49.978Z,11.29
2018-03-04T12:13:49.848Z,11.14
2018-03-04T12:14:49.724Z,11.27
2018-03-04T12:15:49.603Z,11.02
2018-03-04T12:16:49.478Z,11.19
2018-03-04T12:17:49.358Z,11.38
2018-03-04T12:18:49.316Z,11.20
2018-03-04T12:19:49.164Z,10.91
2018-03-04T12:20:48.992Z,10.95
2018-03-04T12:21:49.024Z,11.43
2018-03-04T12:22:48.822Z,11.62
2018-03-04T12:23:48.703Z,11.61
2018-03-04T12:24:48.595Z,11.68
2018-03-04T12:25:48.530Z,12.04
2018-03-04T12:26:48.306Z,12.02
2018-03-04T12:27:48.145Z,12.04
2018-03-04T12:28:48.032Z,11.54
2018-03-04T12:29:48.052Z,11.83
2018-03-04T12:30:47.782Z,11.86
2018-03-04T12:31:48.053Z,11.70
2018-03-04T12:32:47.649Z,11.93
2018-03-04T12:33:47.415Z,11.68
2018-03-04T12:34:47.298Z,11.86
2018-03-04T12:35:47.214Z,11.72
2018-03-04T12:36:47.053Z,12.05
2018-03-04T12:37:46.979Z,12.34
2018-03-04T12:38:47.010Z,12.37
2018-03-04T12:39:46.690Z,12.34
2018-03-04T12:40:46.568Z,12.23
2018-03-04T12:41:46.446Z,11.77
2018-03-04T12:42:46.328Z,11.96
2018-03-04T12:43:46.253Z,11.67
2018-03-04T12:44:46.090Z,12.04
2018-03-04T12:45:45.963Z,12.20
2018-03-04T12:46:45.843Z,12.44
2018-03-04T12:47:45.726Z,12.60
2018-03-04T12:48:45.605Z,12.82
2018-03-04T12:49:45.480Z,13.04
2018-03-04T12:50:45.365Z,13.62
2018-03-04T12:51:45.241Z,13.12
2018-03-04T12:52:45.121Z,13.03
2018-03-04T12:53:44.993Z,12.60
2018-03-04T12:54:44.881Z,12.57
2018-03-04T12:55:44.783Z,12.49
2018-03-04T12:56:44.641Z,11.89
2018-03-04T12:57:44.513Z,12.27